createdAt,value
2023-02-06T00:02:04.857Z,57.90
2023-02-06T00:04:35.830Z,66.30
2023-02-06T00:07:08.070Z,63.30
2023-02-06T00:09:38.660Z,66.80
2023-02-06T00:12:11.846Z,64.10
2023-02-06T00:14:42.438Z,71.20
2023-02-06T00:17:13.066Z,69.00
2023-02-06T00:19:45.020Z,68.40
2023-02-06T00:22:16.105Z,63.70
2023-02-06T00:24:50.059Z,66.10
2023-02-06T00:27:20.574Z,67.60
2023-02-06T00:29:54.179Z,59.80
2023-02-06T00:32:24.637Z,67.10
2023-02-06T00:34:55.138Z,63.50
2023-02-06T00:37:26.841Z,61.60
2023-02-06T00:39:58.686Z,60.10
2023-02-06T00:42:30.612Z,62.20
2023-02-06T00:45:01.198Z,63.90
2023-02-06T00:47:35.734Z,60.90
2023-02-06T00:50:08.995Z,72.00
2023-02-06T00:52:39.357Z,77.20
2023-02-06T00:55:10.396Z,72.30
2023-02-06T00:57:41.728Z,84.50
2023-02-06T01:00:14.612Z,89.60
2023-02-06T01:02:47.107Z,104.50
2023-02-06T01:05:17.838Z,89.70
2023-02-06T01:07:48.272Z,86.60
2023-02-06T01:10:18.948Z,93.40
2023-02-06T01:12:49.402Z,91.50
2023-02-06T01:15:20.114Z,92.20
2023-02-06T01:17:50.661Z,89.90
2023-02-06T01:20:22.017Z,84.00
2023-02-06T01:22:53.058Z,85.50
2023-02-06T01:25:23.828Z,80.40
2023-02-06T01:27:54.523Z,96.90
2023-02-06T01:30:25.430Z,93.10
2023-02-06T01:32:56.125Z,99.80
2023-02-06T01:35:27.378Z,104.10
2023-02-06T01:37:57.722Z,122.30
2023-02-06T01:40:28.479Z,120.40
2023-02-06T01:43:02.543Z,106.50
2023-02-06T01:45:44.522Z,110.40
2023-02-06T01:48:29.176Z,107.70
2023-02-06T01:51:00.467Z,100.40
2023-02-06T01:53:37.804Z,109.50
2023-02-06T01:56:10.905Z,117.60
2023-02-06T01:58:47.814Z,119.10
2023-02-06T02:01:19.014Z,122.70
2023-02-06T02:03:52.124Z,112.40
2023-02-06T02:06:27.143Z,117.00
2023-02-06T02:08:59.522Z,121.50
2023-02-06T02:18:05.118Z,124.60
2023-02-06T02:21:13.238Z,120.90
2023-02-06T02:24:19.053Z,108.20
2023-02-06T02:27:16.030Z,110.00
2023-02-06T02:30:03.393Z,102.40
2023-02-06T02:32:40.106Z,102.90
2023-02-06T02:35:31.261Z,101.70
2023-02-06T02:38:26.833Z,99.10
2023-02-06T02:41:39.205Z,103.00
2023-02-06T02:44:14.461Z,96.30
2023-02-06T02:46:54.173Z,96.40
2023-02-06T02:49:29.423Z,94.70
2023-02-06T02:52:02.306Z,96.60
2023-02-06T02:54:33.082Z,99.60
2023-02-06T02:57:10.905Z,110.80
2023-02-06T02:59:46.856Z,110.50
2023-02-06T03:02:27.853Z,108.60
2023-02-06T03:05:04.735Z,100.70
2023-02-06T03:07:42.635Z,111.40
2023-02-06T03:10:41.884Z,112.90
2023-02-06T03:13:33.623Z,109.00
2023-02-06T03:16:19.981Z,101.30
2023-02-06T03:19:06.910Z,96.90
2023-02-06T03:21:38.895Z,96.60
2023-02-06T03:24:19.333Z,112.40
2023-02-06T03:26:53.624Z,94.10
2023-02-06T03:29:24.751Z,102.00
2023-02-06T03:32:02.346Z,108.20
2023-02-06T03:34:52.763Z,111.10
2023-02-06T03:37:25.165Z,104.30
2023-02-06T03:39:57.749Z,92.60
2023-02-06T03:42:31.722Z,103.90
2023-02-06T03:45:07.975Z,104.60
2023-02-06T03:47:50.949Z,99.30
2023-02-06T03:50:23.176Z,108.00
2023-02-06T03:53:00.656Z,97.00
2023-02-06T03:55:33.254Z,92.10
2023-02-06T03:58:09.759Z,91.80
2023-02-06T04:00:46.769Z,91.30
2023-02-06T04:03:20.397Z,88.60
2023-02-06T04:05:52.582Z,90.80
2023-02-06T04:08:23.335Z,99.00
2023-02-06T04:10:56.226Z,99.70
2023-02-06T04:13:26.841Z,104.30
2023-02-06T04:15:58.054Z,101.30
2023-02-06T04:18:33.281Z,96.70
2023-02-06T04:21:08.591Z,90.30
2023-02-06T04:23:39.193Z,96.70
2023-02-06T04:26:11.885Z,93.60
2023-02-06T04:28:46.334Z,95.30
2023-02-06T04:31:16.910Z,96.40
2023-02-06T04:33:47.353Z,91.30
2023-02-06T04:36:20.565Z,99.60
2023-02-06T04:38:50.931Z,99.50
2023-02-06T04:41:21.555Z,93.90
2023-02-06T04:43:52.190Z,94.40
2023-02-06T04:46:25.255Z,94.00
2023-02-06T04:48:55.908Z,94.70
2023-02-06T04:51:26.282Z,103.40
2023-02-06T04:53:56.740Z,103.40
2023-02-06T04:56:29.216Z,98.40
2023-02-06T04:59:01.576Z,97.80
2023-02-06T05:01:32.269Z,97.60
2023-02-06T05:04:02.954Z,96.00
2023-02-06T05:06:38.491Z,98.60
2023-02-06T05:09:11.868Z,99.20
2023-02-06T05:11:45.015Z,98.90
2023-02-06T05:14:15.419Z,97.80
2023-02-06T05:16:50.027Z,101.20
2023-02-06T05:19:24.173Z,100.40
2023-02-06T05:21:54.844Z,99.80
2023-02-06T05:24:25.604Z,100.40
2023-02-06T05:26:58.768Z,104.60
2023-02-06T05:29:29.256Z,106.30
2023-02-06T05:32:03.323Z,117.00
2023-02-06T05:34:33.824Z,105.70
2023-02-06T05:37:08.538Z,107.60
2023-02-06T05:39:50.177Z,103.20
2023-02-06T05:42:28.752Z,110.30
2023-02-06T05:45:02.078Z,114.00
2023-02-06T05:47:32.401Z,111.40
2023-02-06T05:50:02.958Z,113.00
2023-02-06T05:53:19.787Z,107.40
2023-02-06T05:56:20.816Z,112.70
2023-02-06T05:58:57.637Z,107.60
2023-02-06T06:01:30.869Z,108.20
2023-02-06T06:04:01.316Z,104.30
2023-02-06T06:06:31.907Z,105.50
2023-02-06T06:09:05.065Z,101.30
2023-02-06T06:11:35.691Z,107.90
2023-02-06T06:14:08.910Z,119.70
2023-02-06T06:16:55.745Z,118.90
2023-02-06T06:19:27.330Z,117.20
2023-02-06T06:21:58.385Z,119.50
2023-02-06T06:24:32.028Z,109.30
2023-02-06T06:27:30.099Z,112.60
2023-02-06T06:30:41.705Z,111.80
2023-02-06T06:34:45.955Z,109.80
2023-02-06T06:37:34.103Z,100.10
2023-02-06T06:40:06.263Z,106.80
2023-02-06T06:43:19.424Z,114.90
2023-02-06T06:46:14.542Z,104.20
2023-02-06T06:49:20.044Z,105.10
2023-02-06T06:51:58.161Z,99.90
2023-02-06T06:54:32.267Z,107.60
2023-02-06T06:57:06.144Z,112.80
2023-02-06T06:59:37.834Z,112.50
2023-02-06T07:02:10.213Z,105.80
2023-02-06T07:04:55.721Z,108.40
2023-02-06T07:07:32.082Z,108.90
2023-02-06T07:10:11.740Z,109.70
2023-02-06T07:13:19.360Z,106.50
2023-02-06T07:21:32.392Z,106.70
2023-02-06T07:24:19.190Z,117.70
2023-02-06T07:26:49.548Z,113.80
2023-02-06T07:29:20.459Z,110.70
2023-02-06T07:31:51.425Z,114.00
2023-02-06T07:34:23.011Z,105.00
2023-02-06T07:37:01.414Z,105.80
2023-02-06T07:39:34.389Z,103.30
2023-02-06T07:42:04.982Z,110.40
2023-02-06T07:44:47.340Z,107.70
2023-02-06T07:47:18.236Z,106.80
2023-02-06T07:49:48.595Z,99.30
2023-02-06T07:52:31.080Z,101.60
2023-02-06T07:55:01.719Z,104.70
2023-02-06T07:57:32.614Z,98.20
2023-02-06T08:00:05.339Z,96.20
2023-02-06T08:02:42.706Z,101.50
2023-02-06T08:05:13.431Z,96.30
2023-02-06T08:07:46.034Z,93.60
2023-02-06T08:10:17.192Z,91.90
2023-02-06T08:12:50.876Z,88.70
2023-02-06T08:15:21.692Z,84.90
2023-02-06T08:17:52.357Z,83.60
2023-02-06T08:20:30.042Z,87.70
2023-02-06T08:23:00.639Z,82.10
2023-02-06T08:25:35.451Z,89.70
2023-02-06T08:28:06.775Z,86.80
2023-02-06T08:30:39.661Z,87.90
2023-02-06T08:33:12.692Z,84.40
2023-02-06T08:35:43.475Z,78.00
2023-02-06T08:38:15.467Z,79.20
2023-02-06T08:40:48.789Z,84.20
2023-02-06T08:43:25.176Z,83.40
2023-02-06T08:45:57.961Z,82.50
2023-02-06T08:48:28.765Z,80.10
2023-02-06T08:51:10.567Z,80.90
2023-02-06T08:53:41.596Z,84.80
2023-02-06T08:56:15.502Z,89.00
2023-02-06T08:58:46.112Z,89.20
2023-02-06T09:01:19.185Z,84.50
2023-02-06T09:04:04.881Z,87.00
2023-02-06T09:06:40.511Z,91.10
2023-02-06T09:09:12.206Z,84.20
2023-02-06T09:11:45.439Z,86.70
2023-02-06T09:14:18.228Z,91.90
2023-02-06T09:16:50.944Z,93.80
2023-02-06T09:19:22.982Z,98.20
2023-02-06T09:21:55.949Z,84.90
2023-02-06T09:24:27.594Z,88.60
2023-02-06T09:27:01.091Z,79.90
2023-02-06T09:29:33.279Z,81.90
2023-02-06T09:32:03.751Z,80.90
2023-02-06T09:34:34.206Z,82.40
2023-02-06T09:37:07.243Z,78.70
2023-02-06T09:39:41.198Z,79.80
2023-02-06T09:42:19.772Z,80.10
2023-02-06T09:44:59.722Z,75.90
2023-02-06T09:47:37.975Z,79.50
2023-02-06T09:50:34.622Z,74.50
2023-02-06T09:53:49.923Z,79.20
2023-02-06T09:56:48.863Z,75.40
2023-02-06T09:59:38.797Z,78.30
2023-02-06T10:02:50.242Z,77.30
2023-02-06T10:05:37.633Z,65.80
2023-02-06T10:08:32.350Z,75.60
2023-02-06T10:11:31.690Z,61.70
2023-02-06T10:14:07.533Z,82.10
2023-02-06T10:17:07.162Z,86.80
2023-02-06T10:20:04.546Z,77.60
2023-02-06T10:23:03.287Z,78.70
2023-02-06T10:28:30.033Z,84.90
2023-02-06T10:31:28.716Z,81.80
2023-02-06T10:34:21.110Z,78.20
2023-02-06T10:37:10.078Z,78.70
2023-02-06T10:40:04.314Z,75.60
2023-02-06T10:42:42.266Z,91.00
2023-02-06T10:45:20.287Z,92.10
2023-02-06T10:47:58.308Z,101.40
2023-02-06T10:50:37.917Z,89.80
2023-02-06T10:53:41.113Z,92.10
2023-02-06T10:56:15.462Z,94.40
2023-02-06T10:58:55.386Z,88.80
2023-02-06T11:04:36.106Z,91.40
2023-02-06T11:07:25.898Z,85.50
2023-02-06T11:09:57.840Z,82.40
2023-02-06T11:12:39.114Z,79.60
2023-02-06T11:15:45.247Z,81.40
2023-02-06T11:18:23.744Z,72.50
2023-02-06T11:20:56.163Z,85.80
2023-02-06T11:23:29.672Z,81.10
2023-02-06T11:26:15.732Z,73.10
2023-02-06T11:29:00.893Z,66.10
2023-02-06T11:31:53.022Z,69.60
2023-02-06T11:34:31.484Z,71.80
2023-02-06T11:37:08.576Z,70.60
2023-02-06T11:39:41.491Z,70.20
2023-02-06T11:42:23.881Z,68.00
2023-02-06T11:44:55.722Z,64.50
2023-02-06T11:47:39.533Z,62.40
2023-02-06T11:51:02.098Z,59.50
2023-02-06T11:54:52.003Z,63.30
2023-02-06T11:57:48.080Z,67.20
2023-02-06T12:00:52.766Z,62.60
2023-02-06T12:03:47.039Z,67.50
2023-02-06T12:06:26.155Z,79.60
2023-02-06T12:09:06.977Z,69.50
2023-02-06T12:11:56.685Z,64.40
2023-02-06T12:14:51.237Z,70.40
2023-02-06T12:17:39.813Z,61.00
2023-02-06T12:24:31.526Z,58.90
2023-02-06T12:27:06.902Z,59.90
2023-02-06T12:29:44.851Z,62.10
2023-02-06T12:56:04.633Z,74.80
2023-02-06T12:59:16.845Z,63.00
2023-02-06T13:02:21.415Z,60.40
2023-02-06T13:04:57.647Z,58.00
2023-02-06T13:07:28.994Z,59.10
2023-02-06T13:14:26.790Z,57.60
2023-02-06T13:30:35.746Z,54.80
2023-02-06T13:33:16.704Z,65.10
2023-02-06T13:36:07.209Z,67.80
2023-02-06T13:38:42.626Z,57.70
2023-02-06T13:41:17.232Z,60.60
2023-02-06T13:43:57.196Z,62.10
2023-02-06T13:46:56.432Z,70.40
2023-02-06T13:50:08.372Z,74.90
2023-02-06T13:52:50.096Z,82.90
2023-02-06T13:55:45.097Z,81.40
2023-02-06T13:58:40.436Z,77.10
2023-02-06T14:01:23.477Z,67.10
2023-02-06T14:03:56.472Z,67.50
2023-02-06T14:06:41.880Z,64.00
2023-02-06T14:10:10.709Z,63.70
2023-02-06T14:13:09.481Z,61.30
2023-02-06T14:15:59.160Z,54.60
2023-02-06T14:18:57.613Z,56.80
2023-02-06T14:21:57.641Z,56.20
2023-02-06T14:24:48.409Z,51.20
2023-02-06T14:28:06.994Z,59.60
2023-02-06T14:31:00.446Z,64.00
2023-02-06T14:33:37.203Z,66.00
2023-02-06T14:36:41.353Z,77.80
2023-02-06T14:39:34.501Z,98.50
2023-02-06T14:42:29.399Z,96.50
2023-02-06T14:45:07.190Z,87.30
2023-02-06T14:50:31.605Z,79.90
2023-02-06T14:53:29.327Z,95.30
2023-02-06T14:56:32.892Z,115.20
2023-02-06T14:59:20.574Z,142.10
2023-02-06T15:01:54.562Z,58.70
2023-02-06T15:04:30.603Z,63.10
2023-02-06T15:07:08.839Z,57.70
2023-02-06T15:09:47.169Z,60.10
2023-02-06T15:12:24.372Z,69.60
2023-02-06T15:14:58.835Z,62.60
2023-02-06T15:17:33.389Z,63.60
2023-02-06T15:20:40.938Z,60.70
2023-02-06T15:23:40.760Z,86.40
2023-02-06T15:26:27.494Z,96.20
2023-02-06T15:29:05.074Z,97.80
2023-02-06T15:31:36.818Z,82.80
2023-02-06T15:34:08.005Z,66.00
2023-02-06T15:36:44.026Z,62.50
2023-02-06T15:39:22.333Z,57.80
2023-02-06T15:42:17.273Z,61.00
2023-02-06T15:45:10.789Z,55.80
2023-02-06T15:47:44.969Z,56.40
2023-02-06T15:50:23.682Z,51.00
2023-02-06T15:52:54.808Z,56.30
2023-02-06T15:55:38.214Z,59.50
2023-02-06T15:58:09.798Z,63.50
2023-02-06T16:00:43.695Z,60.60
2023-02-06T16:07:21.199Z,66.10
2023-02-06T16:10:16.106Z,63.60
2023-02-06T16:13:26.748Z,65.20
2023-02-06T16:16:29.680Z,63.00
2023-02-06T16:19:04.479Z,63.60
2023-02-06T16:21:40.422Z,64.90
2023-02-06T16:24:19.671Z,73.90
2023-02-06T16:26:53.184Z,77.90
2023-02-06T16:29:35.275Z,74.50
2023-02-06T16:32:20.033Z,66.40
2023-02-06T16:34:51.500Z,67.40
2023-02-06T16:38:01.457Z,64.60
2023-02-06T16:40:37.989Z,68.30
2023-02-06T16:43:21.851Z,66.30
2023-02-06T16:46:07.635Z,74.50
2023-02-06T16:49:19.334Z,83.50
2023-02-06T16:52:47.256Z,97.50
2023-02-06T17:00:01.026Z,65.00
2023-02-06T17:02:50.957Z,59.80
2023-02-06T17:05:35.321Z,84.20
2023-02-06T17:08:28.066Z,75.70
2023-02-06T17:11:13.004Z,87.30
2023-02-06T17:13:57.242Z,74.90
2023-02-06T17:16:33.591Z,68.30
2023-02-06T17:19:21.627Z,70.50
2023-02-06T17:21:57.825Z,77.10
2023-02-06T17:24:36.950Z,97.80
2023-02-06T17:27:25.550Z,118.40
2023-02-06T17:30:00.804Z,106.40
2023-02-06T17:32:37.887Z,108.90
2023-02-06T17:35:17.207Z,114.90
2023-02-06T17:37:53.984Z,117.80
2023-02-06T17:40:37.447Z,115.10
2023-02-06T17:43:22.051Z,118.90
2023-02-06T17:45:56.482Z,109.90
2023-02-06T17:48:36.635Z,100.80
2023-02-06T17:51:18.740Z,98.10
2023-02-06T17:53:59.023Z,93.10
2023-02-06T17:56:37.298Z,90.90
2023-02-06T17:59:21.629Z,97.90
2023-02-06T18:02:03.868Z,93.60
2023-02-06T18:04:55.737Z,102.50
2023-02-06T18:07:50.111Z,101.70
2023-02-06T18:10:24.728Z,101.80
2023-02-06T18:12:59.434Z,93.10
2023-02-06T18:15:34.357Z,95.50
2023-02-06T18:18:07.109Z,102.80
2023-02-06T18:20:43.515Z,98.20
2023-02-06T18:23:22.451Z,93.90
2023-02-06T18:25:55.043Z,93.70
2023-02-06T18:28:34.724Z,94.00
2023-02-06T18:33:41.002Z,93.40
2023-02-06T18:36:16.160Z,83.60
2023-02-06T18:38:50.307Z,92.40
2023-02-06T18:41:40.610Z,85.30
2023-02-06T18:44:16.448Z,78.00
2023-02-06T18:46:53.368Z,81.90
2023-02-06T18:49:27.035Z,81.80
2023-02-06T18:52:03.237Z,84.80
2023-02-06T18:54:42.938Z,83.00
2023-02-06T18:57:16.652Z,82.60
2023-02-06T18:59:50.472Z,78.20
2023-02-06T19:02:23.615Z,78.00
2023-02-06T19:05:06.929Z,74.00
2023-02-06T19:07:43.114Z,71.40
2023-02-06T19:10:18.957Z,76.70
2023-02-06T19:13:08.821Z,75.20
2023-02-06T19:15:49.284Z,74.30
2023-02-06T19:18:38.748Z,74.00
2023-02-06T19:22:24.949Z,74.80
2023-02-06T19:29:16.772Z,66.70
2023-02-06T19:59:04.904Z,62.20
2023-02-06T20:02:02.703Z,68.60
2023-02-06T20:05:32.753Z,66.40
2023-02-06T20:08:08.942Z,79.70
2023-02-06T20:10:46.732Z,74.00
2023-02-06T20:26:11.929Z,78.50
2023-02-06T20:51:16.649Z,68.60
2023-02-06T20:55:02.045Z,73.20
2023-02-06T20:57:53.847Z,68.80
2023-02-06T21:01:40.136Z,69.00
2023-02-06T21:23:07.865Z,61.20
2023-02-06T21:58:22.244Z,62.40
2023-02-06T22:01:05.341Z,58.40
2023-02-06T22:03:51.126Z,61.50
2023-02-06T22:07:04.502Z,62.90
2023-02-06T22:19:32.512Z,57.50
2023-02-06T22:22:14.576Z,66.10
2023-02-06T22:25:01.553Z,69.80
2023-02-06T22:27:39.373Z,64.80
2023-02-06T22:30:15.299Z,70.00
2023-02-06T22:33:03.258Z,70.80
2023-02-06T22:36:11.523Z,66.90
2023-02-06T22:39:29.393Z,73.80
2023-02-06T22:42:27.302Z,66.30
2023-02-06T22:45:06.998Z,72.40
2023-02-06T22:47:43.675Z,70.40
2023-02-06T22:50:21.663Z,68.40
2023-02-06T22:53:13.395Z,61.90
2023-02-06T22:56:05.573Z,72.40
2023-02-06T22:58:38.198Z,65.10
2023-02-06T23:01:14.665Z,65.20
2023-02-06T23:04:31.169Z,70.20
2023-02-06T23:07:03.663Z,67.00
2023-02-06T23:09:37.618Z,67.30
2023-02-06T23:12:10.162Z,62.60
2023-02-06T23:14:45.042Z,62.50
2023-02-06T23:17:18.058Z,67.60
2023-02-06T23:19:50.518Z,61.70
2023-02-06T23:22:23.552Z,62.70
2023-02-06T23:24:57.181Z,60.50
2023-02-06T23:27:29.918Z,54.90
2023-02-06T23:30:01.457Z,60.20
2023-02-06T23:32:36.946Z,61.10
2023-02-06T23:35:09.431Z,62.20
2023-02-06T23:37:43.711Z,59.60
2023-02-06T23:40:17.818Z,65.60
2023-02-06T23:42:48.705Z,64.30
2023-02-06T23:45:22.907Z,57.50
2023-02-06T23:47:59.019Z,58.60
2023-02-06T23:50:30.424Z,60.20
2023-02-06T23:53:01.263Z,60.00
2023-02-06T23:55:32.776Z,59.50
2023-02-06T23:58:03.882Z,61.70
